Terminal Aerodrome Forecast
Issued by NWS

Home | Current Version | Previous Version | Text Only | Print | Product List | Glossary On
Versions: 1 2 3 4 5 6 7 8 9 10 11 12 13 14 15 16 17 18 19 20 21 22 23
000
FTUS41 KPBZ 171900 AAA
TAFZZV
TAF AMD
KZZV 171908Z 1719/1818 26010G18KT P6SM OVC018
     FM180800 28007KT P6SM BKN025
     FM181400 26006KT P6SM BKN035=

USA.gov is the U.S. government's official web portal to all federal, state and local government web resources and services.